| time (UTC) | temp F | wind direction | speed MPH | gust MPH | rain 1hr in | rain 24hr in | rain mn in | humidity % | barometer mb |
| 20260508225519 | 71 | 161 | 2.0 | 3.0 | 0.00 | 0.00 | 0.00 | 33 | 1044.5 |
| 20260508225016 | 70 | 62 | 1.0 | 3.0 | 0.00 | 0.00 | 0.00 | 33 | 1044.2 |
| 20260508224514 | 71 | 235 | 1.0 | 3.0 | 0.00 | 0.00 | 0.00 | 33 | 1044.3 |
| 20260508224011 | 71 | 260 | 3.0 | 4.0 | 0.00 | 0.00 | 0.00 | 32 | 1044.2 |
| 20260508223509 | 71 | 243 | 2.0 | 6.0 | 0.00 | 0.00 | 0.00 | 32 | 1044.4 |
| 20260508223006 | 72 | 265 | 4.0 | 9.0 | 0.00 | 0.00 | 0.00 | 31 | 1044.1 |
| 20260508222503 | 72 | 251 | 1.0 | 6.0 | 0.00 | 0.00 | 0.00 | 33 | 1044.3 |
| 20260508221959 | 71 | 292 | 3.0 | 4.0 | 0.00 | 0.00 | 0.00 | 31 | 1044.3 |
| 20260508221456 | 72 | 220 | 4.0 | 7.0 | 0.00 | 0.00 | 0.00 | 31 | 1044.1 |
| 20260508220952 | 72 | 297 | 1.0 | 3.0 | 0.00 | 0.00 | 0.00 | 33 | 1044.2 |
| 20260508220448 | 71 | 299 | 1.0 | 8.0 | 0.00 | 0.00 | 0.00 | 31 | 1044.0 |
| 20260508215945 | 71 | 234 | 4.0 | 10.0 | 0.00 | 0.00 | 0.00 | 31 | 1044.3 |
| 20260508215442 | 72 | 268 | 3.0 | 10.0 | 0.00 | 0.00 | 0.00 | 33 | 1044.4 |
| 20260508214938 | 72 | 237 | 2.0 | 4.0 | 0.00 | 0.00 | 0.00 | 31 | 1044.4 |
| 20260508214437 | 72 | 227 | 0.0 | 6.0 | 0.00 | 0.00 | 0.00 | 34 | 1044.0 |
| 20260508213932 | 71 | 235 | 2.0 | 3.0 | 0.00 | 0.00 | 0.00 | 32 | 1044.2 |
| 20260508213430 | 72 | 300 | 3.0 | 6.0 | 0.00 | 0.00 | 0.00 | 31 | 1043.9 |
| 20260508212925 | 72 | 253 | 1.0 | 4.0 | 0.00 | 0.00 | 0.00 | 30 | 1043.8 |
| 20260508212422 | 72 | 312 | 2.0 | 6.0 | 0.00 | 0.00 | 0.00 | 32 | 1044.0 |
| 20260508211918 | 72 | 235 | 1.0 | 3.0 | 0.00 | 0.00 | 0.00 | 33 | 1044.2 |
| 20260508211414 | 72 | 303 | 5.0 | 7.0 | 0.00 | 0.00 | 0.00 | 29 | 1044.4 |
| 20260508210911 | 73 | 293 | 2.0 | 6.0 | 0.00 | 0.00 | 0.00 | 33 | 1044.4 |
| 20260508210408 | 73 | 309 | 4.0 | 6.0 | 0.00 | 0.00 | 0.00 | 29 | 1044.7 |
| 20260508205904 | 73 | 303 | 2.0 | 7.0 | 0.00 | 0.00 | 0.00 | 34 | 1044.8 |
| 20260508205401 | 73 | 262 | 2.0 | 3.0 | 0.00 | 0.00 | 0.00 | 35 | 1044.6 |
| 20260508204857 | 72 | 292 | 0.0 | 4.0 | 0.00 | 0.00 | 0.00 | 38 | 1044.8 |
| 20260508204354 | 72 | 199 | 5.0 | 7.0 | 0.00 | 0.00 | 0.00 | 31 | 1044.9 |
| 20260508203850 | 73 | 239 | 6.0 | 8.0 | 0.00 | 0.00 | 0.00 | 31 | 1045.0 |
| 20260508203346 | 73 | 186 | 2.0 | 7.0 | 0.00 | 0.00 | 0.00 | 34 | 1045.1 |
| 20260508202842 | 73 | 230 | 1.0 | 7.0 | 0.00 | 0.00 | 0.00 | 34 | 1045.3 |
| 20260508202340 | 72 | 283 | 1.0 | 3.0 | 0.00 | 0.00 | 0.00 | 35 | 1045.5 |
| 20260508201837 | 72 | 225 | 7.0 | 10.0 | 0.00 | 0.00 | 0.00 | 34 | 1045.4 |
| 20260508201334 | 72 | 314 | 4.0 | 8.0 | 0.00 | 0.00 | 0.00 | 33 | 1045.5 |
| 20260508200830 | 71 | 298 | 2.0 | 6.0 | 0.00 | 0.00 | 0.00 | 35 | 1045.4 |
| 20260508200327 | 71 | 202 | 7.0 | 13.0 | 0.00 | 0.00 | 0.00 | 33 | 1045.3 |
| 20260508195822 | 71 | 270 | 3.0 | 9.0 | 0.00 | 0.00 | 0.00 | 35 | 1045.7 |
| 20260508195320 | 71 | 237 | 2.0 | 3.0 | 0.00 | 0.00 | 0.00 | 35 | 1045.3 |
| 20260508194816 | 71 | 287 | 9.0 | 11.0 | 0.00 | 0.00 | 0.00 | 30 | 1045.3 |
| 20260508194313 | 71 | 235 | 7.0 | 8.0 | 0.00 | 0.00 | 0.00 | 32 | 1045.5 |
| 20260508193810 | 71 | 281 | 5.0 | 10.0 | 0.00 | 0.00 | 0.00 | 34 | 1045.7 |
| 20260508193307 | 71 | 264 | 3.0 | 10.0 | 0.00 | 0.00 | 0.00 | 33 | 1045.3 |
| 20260508192803 | 71 | 173 | 4.0 | 6.0 | 0.00 | 0.00 | 0.00 | 35 | 1045.4 |
| 20260508192300 | 71 | 61 | 3.0 | 3.0 | 0.00 | 0.00 | 0.00 | 31 | 1045.5 |
| 20260508191757 | 71 | 262 | 5.0 | 14.0 | 0.00 | 0.00 | 0.00 | 31 | 1045.7 |
| 20260508191254 | 71 | 160 | 2.0 | 6.0 | 0.00 | 0.00 | 0.00 | 33 | 1045.7 |
| 20260508190752 | 70 | 344 | 3.0 | 8.0 | 0.00 | 0.00 | 0.00 | 37 | 1045.7 |
| 20260508190247 | 70 | 242 | 1.0 | 9.0 | 0.00 | 0.00 | 0.00 | 38 | 1045.9 |
| 20260508185744 | 70 | 199 | 7.0 | 10.0 | 0.00 | 0.00 | 0.00 | 31 | 1045.9 |
| 20260508185242 | 70 | 181 | 6.0 | 8.0 | 0.00 | 0.00 | 0.00 | 33 | 1046.0 |
| 20260508184738 | 70 | 145 | 3.0 | 8.0 | 0.00 | 0.00 | 0.00 | 35 | 1046.3 |
| 20260508184236 | 71 | 205 | 5.0 | 7.0 | 0.00 | 0.00 | 0.00 | 34 | 1046.0 |
| 20260508183732 | 70 | 256 | 3.0 | 7.0 | 0.00 | 0.00 | 0.00 | 38 | 1046.2 |
| 20260508183229 | 70 | 263 | 4.0 | 7.0 | 0.00 | 0.00 | 0.00 | 34 | 1046.0 |
| 20260508182725 | 70 | 323 | 5.0 | 7.0 | 0.00 | 0.00 | 0.00 | 31 | 1046.2 |
| 20260508182222 | 69 | 249 | 2.0 | 8.0 | 0.00 | 0.00 | 0.00 | 36 | 1046.5 |
| 20260508181718 | 70 | 244 | 3.0 | 9.0 | 0.00 | 0.00 | 0.00 | 32 | 1046.9 |
| 20260508181215 | 69 | 252 | 3.0 | 6.0 | 0.00 | 0.00 | 0.00 | 39 | 1046.8 |
| 20260508180711 | 69 | 262 | 4.0 | 11.0 | 0.00 | 0.00 | 0.00 | 37 | 1047.3 |
| 20260508180208 | 70 | 206 | 3.0 | 8.0 | 0.00 | 0.00 | 0.00 | 36 | 1047.1 |
| 20260508175705 | 70 | 325 | 2.0 | 4.0 | 0.00 | 0.00 | 0.00 | 36 | 1047.1 |
| 20260508175201 | 70 | 291 | 3.0 | 6.0 | 0.00 | 0.00 | 0.00 | 41 | 1047.6 |
| 20260508174659 | 70 | 181 | 3.0 | 6.0 | 0.00 | 0.00 | 0.00 | 36 | 1047.3 |
| 20260508174155 | 69 | 231 | 5.0 | 7.0 | 0.00 | 0.00 | 0.00 | 37 | 1047.7 |
| 20260508173653 | 69 | 245 | 1.0 | 3.0 | 0.00 | 0.00 | 0.00 | 40 | 1047.9 |
| 20260508173148 | 69 | 300 | 2.0 | 6.0 | 0.00 | 0.00 | 0.00 | 37 | 1047.6 |
| 20260508172646 | 69 | 255 | 6.0 | 9.0 | 0.00 | 0.00 | 0.00 | 35 | 1047.9 |
| 20260508172143 | 69 | 269 | 4.0 | 6.0 | 0.00 | 0.00 | 0.00 | 36 | 1048.0 |
| 20260508171639 | 69 | 239 | 1.0 | 3.0 | 0.00 | 0.00 | 0.00 | 39 | 1048.0 |
| 20260508171136 | 69 | 275 | 2.0 | 6.0 | 0.00 | 0.00 | 0.00 | 41 | 1048.2 |
| 20260508170633 | 69 | 241 | 3.0 | 6.0 | 0.00 | 0.00 | 0.00 | 38 | 1048.2 |
| 20260508170130 | 68 | 278 | 2.0 | 3.0 | 0.00 | 0.00 | 0.00 | 41 | 1048.4 |
| 20260508165627 | 68 | 299 | 1.0 | 6.0 | 0.00 | 0.00 | 0.00 | 38 | 1048.4 |
| 20260508165124 | 68 | 233 | 7.0 | 10.0 | 0.00 | 0.00 | 0.00 | 36 | 1048.4 |
| 20260508164620 | 69 | 244 | 5.0 | 6.0 | 0.00 | 0.00 | 0.00 | 37 | 1048.5 |
| 20260508164118 | 68 | 210 | 2.0 | 4.0 | 0.00 | 0.00 | 0.00 | 40 | 1048.6 |
| 20260508163615 | 68 | 322 | 0.0 | 4.0 | 0.00 | 0.00 | 0.00 | 37 | 1048.9 |
| 20260508163112 | 68 | 239 | 0.0 | 4.0 | 0.00 | 0.00 | 0.00 | 40 | 1049.0 |
| 20260508162608 | 67 | 252 | 2.0 | 6.0 | 0.00 | 0.00 | 0.00 | 44 | 1048.8 |
| 20260508162106 | 67 | 209 | 4.0 | 6.0 | 0.00 | 0.00 | 0.00 | 39 | 1049.0 |
| 20260508161602 | 66 | 210 | 5.0 | 8.0 | 0.00 | 0.00 | 0.00 | 38 | 1049.0 |
| 20260508161100 | 67 | 226 | 9.0 | 9.0 | 0.00 | 0.00 | 0.00 | 36 | 1049.2 |
| 20260508160558 | 67 | 244 | 6.0 | 9.0 | 0.00 | 0.00 | 0.00 | 38 | 1049.1 |
| 20260508160055 | 66 | 203 | 3.0 | 9.0 | 0.00 | 0.00 | 0.00 | 37 | 1049.5 |
| 20260508155552 | 66 | 283 | 1.0 | 6.0 | 0.00 | 0.00 | 0.00 | 39 | 1049.3 |
| 20260508155049 | 66 | 307 | 4.0 | 6.0 | 0.00 | 0.00 | 0.00 | 37 | 1049.3 |
| 20260508154546 | 66 | 217 | 3.0 | 6.0 | 0.00 | 0.00 | 0.00 | 37 | 1049.6 |
| 20260508154043 | 66 | 284 | 3.0 | 4.0 | 0.00 | 0.00 | 0.00 | 41 | 1049.5 |
| 20260508153539 | 65 | 193 | 5.0 | 6.0 | 0.00 | 0.00 | 0.00 | 36 | 1049.9 |
| 20260508153036 | 66 | 269 | 6.0 | 7.0 | 0.00 | 0.00 | 0.00 | 39 | 1049.7 |
| 20260508152533 | 65 | 312 | 1.0 | 6.0 | 0.00 | 0.00 | 0.00 | 45 | 1049.7 |
| 20260508152028 | 65 | 246 | 4.0 | 8.0 | 0.00 | 0.00 | 0.00 | 39 | 1049.6 |
| 20260508151525 | 65 | 218 | 1.0 | 4.0 | 0.00 | 0.00 | 0.00 | 41 | 1050.0 |
| 20260508151022 | 65 | 220 | 2.0 | 4.0 | 0.00 | 0.00 | 0.00 | 45 | 1049.7 |
| 20260508150519 | 65 | 266 | 3.0 | 8.0 | 0.00 | 0.00 | 0.00 | 41 | 1049.8 |
| 20260508150015 | 65 | 218 | 1.0 | 7.0 | 0.00 | 0.00 | 0.00 | 42 | 1049.7 |
| 20260508145512 | 65 | 248 | 3.0 | 8.0 | 0.00 | 0.00 | 0.00 | 42 | 1049.8 |
| 20260508145008 | 65 | 216 | 4.0 | 4.0 | 0.00 | 0.00 | 0.00 | 41 | 1049.8 |
| 20260508144506 | 64 | 272 | 2.0 | 7.0 | 0.00 | 0.00 | 0.00 | 42 | 1049.8 |
| 20260508144003 | 65 | 233 | 5.0 | 7.0 | 0.00 | 0.00 | 0.00 | 41 | 1049.8 |
| 20260508143500 | 65 | 316 | 2.0 | 3.0 | 0.00 | 0.00 | 0.00 | 46 | 1049.9 |
| 20260508142956 | 64 | 231 | 2.0 | 3.0 | 0.00 | 0.00 | 0.00 | 43 | 1049.8 |
| 20260508142454 | 64 | 263 | 2.0 | 3.0 | 0.00 | 0.00 | 0.00 | 42 | 1049.9 |
| 20260508141950 | 63 | 211 | 1.0 | 3.0 | 0.00 | 0.00 | 0.00 | 43 | 1050.0 |
| 20260508141447 | 63 | 280 | 1.0 | 3.0 | 0.00 | 0.00 | 0.00 | 45 | 1049.9 |
| 20260508140945 | 63 | 308 | 2.0 | 3.0 | 0.00 | 0.00 | 0.00 | 51 | 1049.9 |
| 20260508140442 | 62 | 282 | 2.0 | 4.0 | 0.00 | 0.00 | 0.00 | 49 | 1049.8 |
| 20260508135937 | 62 | 259 | 2.0 | 3.0 | 0.00 | 0.00 | 0.00 | 50 | 1050.0 |
| 20260508135434 | 61 | 225 | 3.0 | 4.0 | 0.00 | 0.00 | 0.00 | 48 | 1050.0 |
| 20260508134930 | 61 | 230 | 2.0 | 6.0 | 0.00 | 0.00 | 0.00 | 53 | 1049.8 |
| 20260508134427 | 61 | 213 | 3.0 | 6.0 | 0.00 | 0.00 | 0.00 | 48 | 1049.9 |
| 20260508133924 | 60 | 226 | 2.0 | 2.0 | 0.00 | 0.00 | 0.00 | 55 | 1050.0 |
| 20260508133421 | 59 | 247 | 2.0 | 3.0 | 0.00 | 0.00 | 0.00 | 57 | 1050.2 |
| 20260508132918 | 58 | 182 | 1.0 | 3.0 | 0.00 | 0.00 | 0.00 | 64 | 1050.1 |
| 20260508132416 | 58 | 312 | 2.0 | 3.0 | 0.00 | 0.00 | 0.00 | 58 | 1050.0 |
| 20260508131913 | 58 | 215 | 1.0 | 4.0 | 0.00 | 0.00 | 0.00 | 62 | 1050.1 |
| 20260508131408 | 57 | 191 | 2.0 | 3.0 | 0.00 | 0.00 | 0.00 | 63 | 1049.8 |
| 20260508130905 | 56 | 215 | 1.0 | 2.0 | 0.00 | 0.00 | 0.00 | 64 | 1049.9 |
| 20260508130402 | 56 | 200 | 2.0 | 2.0 | 0.00 | 0.00 | 0.00 | 64 | 1049.7 |
| 20260508125858 | 55 | 199 | 1.0 | 1.0 | 0.00 | 0.00 | 0.00 | 68 | 1050.0 |
| 20260508125354 | 54 | 152 | 1.0 | 1.0 | 0.00 | 0.00 | 0.00 | 68 | 1049.7 |
| 20260508124852 | 53 | 210 | 1.0 | 1.0 | 0.00 | 0.00 | 0.00 | 71 | 1050.1 |
| 20260508124349 | 54 | 204 | 1.0 | 1.0 | 0.00 | 0.00 | 0.00 | 69 | 1049.9 |
| 20260508123847 | 53 | 202 | 0.0 | 0.0 | 0.00 | 0.00 | 0.00 | 74 | 1050.1 |
| 20260508123345 | 51 | 204 | 1.0 | 1.0 | 0.00 | 0.00 | 0.00 | 75 | 1049.7 |
| 20260508122841 | 51 | 205 | 1.0 | 1.0 | 0.00 | 0.00 | 0.00 | 77 | 1049.6 |
| 20260508122338 | 50 | 216 | 0.0 | 0.0 | 0.00 | 0.00 | 0.00 | 78 | 1049.9 |
| 20260508121835 | 48 | 216 | 0.0 | 0.0 | 0.00 | 0.00 | 0.00 | 82 | 1050.0 |
| 20260508121334 | 48 | 216 | 1.0 | 1.0 | 0.00 | 0.00 | 0.00 | 80 | 1049.9 |
| 20260508120831 | 49 | 216 | 0.0 | 0.0 | 0.00 | 0.00 | 0.00 | 78 | 1050.0 |
| 20260508120329 | 48 | 216 | 0.0 | 0.0 | 0.00 | 0.00 | 0.00 | 84 | 1049.8 |
| 20260508115826 | 46 | 216 | 0.0 | 0.0 | 0.00 | 0.00 | 0.00 | 90 | 1050.0 |
| 20260508115324 | 46 | 216 | 0.0 | 0.0 | 0.00 | 0.00 | 0.00 | 93 | 1049.8 |
| 20260508114820 | 44 | 216 | 0.0 | 0.0 | 0.00 | 0.00 | 0.00 | 97 | 1050.0 |
| 20260508114317 | 42 | 216 | 0.0 | 0.0 | 0.00 | 0.00 | 0.00 | 97 | 1049.8 |
| 20260508113813 | 42 | 216 | 0.0 | 0.0 | 0.00 | 0.00 | 0.00 | 97 | 1049.6 |
| 20260508113312 | 41 | 216 | 0.0 | 0.0 | 0.00 | 0.00 | 0.00 | 98 | 1049.7 |
| 20260508112808 | 40 | 216 | 0.0 | 0.0 | 0.00 | 0.00 | 0.00 | 98 | 1049.5 |
| 20260508112307 | 38 | 216 | 0.0 | 0.0 | 0.00 | 0.00 | 0.00 | 98 | 1049.5 |
| 20260508111801 | 38 | 216 | 0.0 | 0.0 | 0.00 | 0.00 | 0.00 | 98 | 1049.4 |
| 20260508111259 | 37 | 216 | 0.0 | 0.0 | 0.00 | 0.00 | 0.00 | 98 | 1049.5 |
| 20260508110756 | 35 | 216 | 0.0 | 0.0 | 0.00 | 0.00 | 0.00 | 98 | 1049.4 |
| 20260508110253 | 35 | 216 | 0.0 | 0.0 | 0.00 | 0.00 | 0.00 | 98 | 1049.3 |
| 20260508105753 | 34 | 216 | 0.0 | 0.0 | 0.00 | 0.00 | 0.00 | 97 | 1049.3 |
| 20260508105250 | 35 | 216 | 0.0 | 0.0 | 0.00 | 0.00 | 0.00 | 97 | 1049.5 |
| 20260508104747 | 35 | 216 | 0.0 | 0.0 | 0.00 | 0.00 | 0.00 | 98 | 1049.1 |
| 20260508104244 | 34 | 216 | 0.0 | 0.0 | 0.00 | 0.00 | 0.00 | 98 | 1049.1 |
| 20260508103742 | 34 | 216 | 0.0 | 0.0 | 0.00 | 0.00 | 0.00 | 98 | 1049.1 |
| 20260508103238 | 34 | 216 | 0.0 | 0.0 | 0.00 | 0.00 | 0.00 | 97 | 1049.1 |
| 20260508102735 | 34 | 216 | 0.0 | 0.0 | 0.00 | 0.00 | 0.00 | 97 | 1049.1 |
| 20260508102234 | 34 | 216 | 0.0 | 0.0 | 0.00 | 0.00 | 0.00 | 97 | 1048.8 |
| 20260508101730 | 34 | 216 | 0.0 | 0.0 | 0.00 | 0.00 | 0.00 | 97 | 1048.9 |
| 20260508101228 | 34 | 216 | 0.0 | 0.0 | 0.00 | 0.00 | 0.00 | 97 | 1048.9 |
| 20260508100726 | 34 | 216 | 0.0 | 0.0 | 0.00 | 0.00 | 0.00 | 97 | 1049.0 |
| 20260508100224 | 34 | 216 | 0.0 | 0.0 | 0.00 | 0.00 | 0.00 | 97 | 1048.9 |
| 20260508095719 | 34 | 216 | 0.0 | 0.0 | 0.00 | 0.00 | 0.00 | 97 | 1048.7 |
| 20260508095217 | 34 | 216 | 0.0 | 0.0 | 0.00 | 0.00 | 0.00 | 97 | 1048.9 |
| 20260508094713 | 34 | 216 | 0.0 | 0.0 | 0.00 | 0.00 | 0.00 | 97 | 1049.0 |
| 20260508094210 | 34 | 216 | 0.0 | 0.0 | 0.00 | 0.00 | 0.00 | 97 | 1049.0 |
| 20260508093707 | 34 | 216 | 0.0 | 0.0 | 0.00 | 0.00 | 0.00 | 97 | 1048.8 |
| 20260508093206 | 34 | 216 | 0.0 | 0.0 | 0.00 | 0.00 | 0.00 | 97 | 1049.1 |
| 20260508092702 | 34 | 216 | 0.0 | 0.0 | 0.00 | 0.00 | 0.00 | 97 | 1048.9 |
| 20260508092201 | 34 | 216 | 0.0 | 0.0 | 0.00 | 0.00 | 0.00 | 97 | 1049.0 |
| 20260508091658 | 34 | 216 | 0.0 | 0.0 | 0.00 | 0.00 | 0.00 | 97 | 1049.1 |
| 20260508091155 | 34 | 216 | 0.0 | 0.0 | 0.00 | 0.00 | 0.00 | 97 | 1049.2 |
| 20260508090652 | 34 | 216 | 0.0 | 0.0 | 0.00 | 0.00 | 0.00 | 97 | 1049.2 |
| 20260508090150 | 34 | 216 | 0.0 | 0.0 | 0.00 | 0.00 | 0.00 | 97 | 1048.9 |
| 20260508085645 | 34 | 216 | 0.0 | 0.0 | 0.00 | 0.00 | 0.00 | 97 | 1049.2 |
| 20260508085143 | 34 | 216 | 0.0 | 0.0 | 0.00 | 0.00 | 0.00 | 97 | 1049.2 |
| 20260508084639 | 35 | 216 | 0.0 | 0.0 | 0.00 | 0.00 | 0.00 | 97 | 1049.1 |
| 20260508084136 | 34 | 216 | 0.0 | 0.0 | 0.00 | 0.00 | 0.00 | 97 | 1049.0 |
| 20260508083634 | 34 | 216 | 0.0 | 0.0 | 0.00 | 0.00 | 0.00 | 97 | 1049.1 |
| 20260508083131 | 34 | 216 | 0.0 | 0.0 | 0.00 | 0.00 | 0.00 | 97 | 1049.3 |
| 20260508082626 | 35 | 216 | 0.0 | 0.0 | 0.00 | 0.00 | 0.00 | 97 | 1049.0 |
| 20260508082124 | 35 | 216 | 0.0 | 0.0 | 0.00 | 0.00 | 0.00 | 97 | 1049.3 |
| 20260508081621 | 35 | 216 | 0.0 | 0.0 | 0.00 | 0.00 | 0.00 | 97 | 1049.4 |
| 20260508081118 | 35 | 216 | 0.0 | 0.0 | 0.00 | 0.00 | 0.00 | 97 | 1049.1 |
| 20260508080615 | 35 | 216 | 0.0 | 0.0 | 0.00 | 0.00 | 0.00 | 97 | 1049.0 |
| 20260508080113 | 35 | 216 | 0.0 | 0.0 | 0.00 | 0.00 | 0.00 | 97 | 1049.1 |
| 20260508075609 | 35 | 216 | 0.0 | 0.0 | 0.00 | 0.00 | 0.00 | 97 | 1049.0 |
| 20260508075106 | 35 | 216 | 0.0 | 0.0 | 0.00 | 0.00 | 0.00 | 97 | 1049.2 |
| 20260508074604 | 35 | 216 | 0.0 | 0.0 | 0.00 | 0.00 | 0.00 | 97 | 1049.1 |
| 20260508074101 | 35 | 216 | 0.0 | 0.0 | 0.00 | 0.00 | 0.00 | 97 | 1049.0 |
| 20260508073558 | 35 | 216 | 0.0 | 0.0 | 0.00 | 0.00 | 0.00 | 97 | 1049.3 |
| 20260508073056 | 35 | 216 | 0.0 | 0.0 | 0.00 | 0.00 | 0.00 | 97 | 1049.1 |
| 20260508072551 | 35 | 216 | 0.0 | 0.0 | 0.00 | 0.00 | 0.00 | 97 | 1049.0 |
| 20260508072048 | 35 | 216 | 0.0 | 0.0 | 0.00 | 0.00 | 0.00 | 97 | 1048.9 |
| 20260508071546 | 35 | 216 | 0.0 | 0.0 | 0.00 | 0.00 | 0.00 | 96 | 1049.2 |
| 20260508071044 | 35 | 216 | 0.0 | 0.0 | 0.00 | 0.00 | 0.00 | 96 | 1049.0 |
| 20260508070541 | 35 | 216 | 0.0 | 0.0 | 0.00 | 0.00 | 0.00 | 96 | 1049.0 |
| 20260508070040 | 35 | 216 | 0.0 | 1.0 | 0.00 | 0.00 | 0.00 | 96 | 1049.0 |
| 20260508065537 | 35 | 216 | 0.0 | 0.0 | 0.00 | 0.00 | 0.00 | 96 | 1049.2 |
| 20260508065035 | 35 | 216 | 0.0 | 0.0 | 0.00 | 0.00 | 0.00 | 96 | 1049.1 |
| 20260508064532 | 35 | 216 | 0.0 | 0.0 | 0.00 | 0.00 | 0.00 | 96 | 1049.1 |
| 20260508064030 | 35 | 216 | 0.0 | 0.0 | 0.00 | 0.00 | 0.00 | 96 | 1049.4 |
| 20260508063527 | 36 | 216 | 0.0 | 0.0 | 0.00 | 0.00 | 0.00 | 96 | 1049.2 |
| 20260508063025 | 36 | 216 | 0.0 | 0.0 | 0.00 | 0.00 | 0.00 | 96 | 1049.3 |
| 20260508062522 | 36 | 216 | 0.0 | 0.0 | 0.00 | 0.00 | 0.00 | 96 | 1049.3 |
| 20260508062019 | 36 | 216 | 0.0 | 0.0 | 0.00 | 0.00 | 0.00 | 96 | 1049.1 |
| 20260508061517 | 37 | 216 | 0.0 | 0.0 | 0.00 | 0.00 | 0.00 | 96 | 1049.2 |
| 20260508061013 | 37 | 216 | 0.0 | 0.0 | 0.00 | 0.00 | 0.00 | 96 | 1049.1 |
| 20260508060510 | 37 | 216 | 0.0 | 0.0 | 0.00 | 0.00 | 0.00 | 96 | 1049.3 |
| 20260508060008 | 37 | 221 | 1.0 | 1.0 | 0.00 | 0.00 | 0.00 | 96 | 1049.3 |
| 20260508055503 | 37 | 235 | 0.0 | 1.0 | 0.00 | 0.00 | 0.00 | 96 | 1049.6 |
| 20260508055000 | 37 | 19 | 0.0 | 0.0 | 0.00 | 0.00 | 0.00 | 96 | 1049.4 |
| 20260508054457 | 37 | 19 | 0.0 | 0.0 | 0.00 | 0.00 | 0.00 | 96 | 1049.5 |
| 20260508053953 | 37 | 19 | 0.0 | 0.0 | 0.00 | 0.00 | 0.00 | 96 | 1049.6 |
| 20260508053450 | 36 | 19 | 0.0 | 0.0 | 0.00 | 0.00 | 0.00 | 96 | 1049.4 |
| 20260508052949 | 36 | 19 | 0.0 | 0.0 | 0.00 | 0.00 | 0.00 | 96 | 1049.4 |
| 20260508052446 | 37 | 19 | 0.0 | 0.0 | 0.00 | 0.00 | 0.00 | 96 | 1049.6 |
| 20260508051942 | 37 | 19 | 0.0 | 0.0 | 0.00 | 0.00 | 0.00 | 95 | 1049.6 |
| 20260508051438 | 37 | 19 | 0.0 | 0.0 | 0.00 | 0.00 | 0.00 | 95 | 1049.3 |
| 20260508050934 | 37 | 19 | 0.0 | 0.0 | 0.00 | 0.00 | 0.00 | 96 | 1049.4 |
| 20260508050431 | 37 | 19 | 0.0 | 0.0 | 0.00 | 0.00 | 0.00 | 96 | 1049.6 |
| 20260508045927 | 37 | 19 | 0.0 | 0.0 | 0.00 | 0.00 | 0.00 | 95 | 1049.6 |
| 20260508045425 | 37 | 19 | 0.0 | 0.0 | 0.00 | 0.00 | 0.00 | 95 | 1049.6 |
| 20260508044922 | 38 | 19 | 0.0 | 0.0 | 0.00 | 0.00 | 0.00 | 95 | 1049.6 |
| 20260508044419 | 38 | 19 | 0.0 | 0.0 | 0.00 | 0.00 | 0.00 | 96 | 1049.2 |
| 20260508043914 | 37 | 19 | 0.0 | 0.0 | 0.00 | 0.00 | 0.00 | 95 | 1049.2 |
| 20260508043412 | 37 | 19 | 0.0 | 0.0 | 0.00 | 0.00 | 0.00 | 95 | 1049.3 |
| 20260508042908 | 38 | 19 | 0.0 | 0.0 | 0.00 | 0.00 | 0.00 | 95 | 1049.3 |
| 20260508042406 | 38 | 19 | 0.0 | 0.0 | 0.00 | 0.00 | 0.00 | 95 | 1049.3 |
| 20260508041903 | 38 | 19 | 0.0 | 0.0 | 0.00 | 0.00 | 0.00 | 95 | 1049.2 |
| 20260508041359 | 38 | 19 | 0.0 | 0.0 | 0.00 | 0.00 | 0.00 | 95 | 1049.1 |
| 20260508040855 | 38 | 19 | 0.0 | 0.0 | 0.00 | 0.00 | 0.00 | 95 | 1049.3 |
| 20260508040353 | 38 | 19 | 0.0 | 0.0 | 0.00 | 0.00 | 0.00 | 95 | 1049.3 |
| 20260508035851 | 38 | 19 | 0.0 | 0.0 | 0.00 | 0.00 | 0.00 | 95 | 1049.2 |
| 20260508035348 | 38 | 19 | 0.0 | 0.0 | 0.00 | 0.00 | 0.00 | 94 | 1049.2 |
| 20260508034844 | 39 | 19 | 0.0 | 0.0 | 0.00 | 0.00 | 0.00 | 94 | 1049.1 |
| 20260508034342 | 39 | 19 | 0.0 | 0.0 | 0.00 | 0.00 | 0.00 | 94 | 1049.3 |
| 20260508033838 | 39 | 19 | 0.0 | 0.0 | 0.00 | 0.00 | 0.00 | 94 | 1049.3 |
| 20260508033337 | 39 | 19 | 0.0 | 0.0 | 0.00 | 0.00 | 0.00 | 94 | 1049.6 |
| 20260508032834 | 39 | 19 | 0.0 | 0.0 | 0.00 | 0.00 | 0.00 | 94 | 1049.3 |
| 20260508032331 | 39 | 19 | 0.0 | 0.0 | 0.00 | 0.00 | 0.00 | 94 | 1049.3 |
| 20260508031827 | 39 | 19 | 0.0 | 0.0 | 0.00 | 0.00 | 0.00 | 94 | 1049.5 |
| 20260508031324 | 39 | 19 | 0.0 | 0.0 | 0.00 | 0.00 | 0.00 | 93 | 1049.4 |
| 20260508030821 | 39 | 19 | 0.0 | 0.0 | 0.00 | 0.00 | 0.00 | 93 | 1049.3 |
| 20260508030318 | 40 | 19 | 0.0 | 0.0 | 0.00 | 0.00 | 0.00 | 93 | 1049.5 |
| 20260508025814 | 40 | 19 | 0.0 | 0.0 | 0.00 | 0.00 | 0.00 | 93 | 1049.3 |
| 20260508025312 | 40 | 19 | 0.0 | 0.0 | 0.00 | 0.00 | 0.00 | 93 | 1049.3 |
| 20260508024808 | 40 | 19 | 0.0 | 0.0 | 0.00 | 0.00 | 0.00 | 93 | 1049.2 |
| 20260508024305 | 40 | 19 | 0.0 | 0.0 | 0.00 | 0.00 | 0.00 | 92 | 1049.3 |
| 20260508023802 | 40 | 19 | 0.0 | 0.0 | 0.00 | 0.00 | 0.00 | 92 | 1049.3 |
| 20260508023259 | 40 | 19 | 0.0 | 0.0 | 0.00 | 0.00 | 0.00 | 92 | 1049.2 |
| 20260508022754 | 41 | 19 | 0.0 | 0.0 | 0.00 | 0.00 | 0.00 | 91 | 1049.1 |
| 20260508022251 | 41 | 19 | 0.0 | 0.0 | 0.00 | 0.00 | 0.00 | 91 | 1049.2 |
| 20260508021748 | 41 | 19 | 0.0 | 0.0 | 0.00 | 0.00 | 0.00 | 91 | 1049.0 |
| 20260508021243 | 41 | 19 | 0.0 | 0.0 | 0.00 | 0.00 | 0.00 | 90 | 1049.2 |
| 20260508020741 | 42 | 19 | 0.0 | 0.0 | 0.00 | 0.00 | 0.00 | 91 | 1048.9 |
| 20260508020238 | 42 | 19 | 0.0 | 0.0 | 0.00 | 0.00 | 0.00 | 89 | 1049.1 |
| 20260508015735 | 42 | 19 | 0.0 | 0.0 | 0.00 | 0.00 | 0.00 | 89 | 1049.0 |
| 20260508015232 | 42 | 19 | 0.0 | 0.0 | 0.00 | 0.00 | 0.00 | 88 | 1048.7 |
| 20260508014729 | 42 | 19 | 0.0 | 0.0 | 0.00 | 0.00 | 0.00 | 88 | 1048.6 |
| 20260508014226 | 43 | 19 | 0.0 | 0.0 | 0.00 | 0.00 | 0.00 | 88 | 1048.5 |
| 20260508013721 | 43 | 19 | 0.0 | 0.0 | 0.00 | 0.00 | 0.00 | 87 | 1048.5 |
| 20260508013218 | 44 | 19 | 0.0 | 0.0 | 0.00 | 0.00 | 0.00 | 86 | 1048.5 |
| 20260508012716 | 44 | 19 | 0.0 | 0.0 | 0.00 | 0.00 | 0.00 | 86 | 1048.4 |
| 20260508012213 | 45 | 19 | 0.0 | 0.0 | 0.00 | 0.00 | 0.00 | 86 | 1048.4 |
| 20260508011711 | 45 | 19 | 0.0 | 0.0 | 0.00 | 0.00 | 0.00 | 84 | 1048.4 |
| 20260508011208 | 46 | 19 | 0.0 | 0.0 | 0.00 | 0.00 | 0.00 | 84 | 1048.4 |
| 20260508010705 | 46 | 19 | 0.0 | 0.0 | 0.00 | 0.00 | 0.00 | 84 | 1048.3 |
| 20260508010203 | 47 | 19 | 0.0 | 0.0 | 0.00 | 0.00 | 0.00 | 84 | 1048.3 |
| 20260508005700 | 47 | 19 | 0.0 | 0.0 | 0.00 | 0.00 | 0.00 | 82 | 1048.1 |
| 20260508005156 | 48 | 19 | 0.0 | 0.0 | 0.00 | 0.00 | 0.00 | 79 | 1048.0 |
| 20260508004652 | 48 | 19 | 0.0 | 0.0 | 0.00 | 0.00 | 0.00 | 78 | 1047.9 |
| 20260508004148 | 49 | 19 | 0.0 | 0.0 | 0.00 | 0.00 | 0.00 | 77 | 1048.1 |
| 20260508003645 | 50 | 19 | 0.0 | 0.0 | 0.00 | 0.00 | 0.00 | 79 | 1047.9 |
| 20260508003143 | 52 | 19 | 0.0 | 0.0 | 0.00 | 0.00 | 0.00 | 75 | 1047.9 |
| 20260508002639 | 52 | 19 | 0.0 | 0.0 | 0.00 | 0.00 | 0.00 | 75 | 1047.7 |
| 20260508002137 | 53 | 19 | 0.0 | 0.0 | 0.00 | 0.00 | 0.00 | 72 | 1048.0 |
| 20260508001638 | 54 | 19 | 0.0 | 0.0 | 0.00 | 0.00 | 0.00 | 67 | 1047.8 |
| 20260508001134 | 55 | 19 | 0.0 | 0.0 | 0.00 | 0.00 | 0.00 | 56 | 1047.6 |
| 20260508000630 | 56 | 19 | 0.0 | 0.0 | 0.00 | 0.00 | 0.00 | 54 | 1047.8 |
| 20260508000127 | 56 | 18 | 0.0 | 0.0 | 0.00 | 0.00 | 0.00 | 49 | 1047.6 |
| 20260507235624 | 57 | 18 | 0.0 | 0.0 | 0.00 | 0.00 | 0.00 | 47 | 1047.5 |
| 20260507235122 | 57 | 18 | 0.0 | 0.0 | 0.00 | 0.00 | 0.00 | 45 | 1047.8 |
| 20260507234618 | 58 | 19 | 0.0 | 1.0 | 0.00 | 0.00 | 0.00 | 42 | 1047.5 |
| 20260507234114 | 58 | 19 | 0.0 | 1.0 | 0.00 | 0.00 | 0.00 | 45 | 1047.4 |
| 20260507233611 | 59 | 19 | 0.0 | 1.0 | 0.00 | 0.00 | 0.00 | 43 | 1047.5 |
| 20260507233110 | 59 | 19 | 0.0 | 0.0 | 0.00 | 0.00 | 0.00 | 41 | 1047.6 |
| 20260507232606 | 61 | 333 | 1.0 | 1.0 | 0.00 | 0.00 | 0.00 | 42 | 1047.6 |
| 20260507232103 | 63 | 303 | 0.0 | 0.0 | 0.00 | 0.00 | 0.00 | 41 | 1047.5 |
| 20260507231559 | 63 | 303 | 0.0 | 0.0 | 0.00 | 0.00 | 0.00 | 42 | 1047.5 |
| 20260507231057 | 63 | 295 | 2.0 | 2.0 | 0.00 | 0.00 | 0.00 | 40 | 1047.6 |
| 20260507230553 | 63 | 310 | 1.0 | 2.0 | 0.00 | 0.00 | 0.00 | 33 | 1047.8 |
| 20260507230050 | 64 | 288 | 2.0 | 2.0 | 0.00 | 0.00 | 0.00 | 35 | 1047.5 |
| 20260507225544 | 64 | 353 | 1.0 | 2.0 | 0.00 | 0.00 | 0.00 | 35 | 1047.6 |